createdAt,value
2023-03-22T00:01:37.753Z,7.53
2023-03-22T00:06:41.562Z,7.40
2023-03-22T00:11:44.776Z,6.90
2023-03-22T00:16:49.994Z,6.75
2023-03-22T00:21:53.244Z,6.35
2023-03-22T00:26:56.622Z,6.82
2023-03-22T00:32:01.348Z,5.90
2023-03-22T00:37:05.066Z,6.90
2023-03-22T00:42:08.833Z,5.93
2023-03-22T00:47:14.629Z,6.35
2023-03-22T00:52:18.418Z,5.88
2023-03-22T00:57:21.814Z,6.03
2023-03-22T01:02:29.751Z,5.32
2023-03-22T01:07:33.552Z,5.22
2023-03-22T01:12:40.616Z,5.68
2023-03-22T01:17:49.106Z,4.82
2023-03-22T01:22:52.546Z,5.05
2023-03-22T01:27:56.041Z,4.53
2023-03-22T01:33:00.754Z,4.60
2023-03-22T01:38:04.617Z,5.00
2023-03-22T01:48:27.742Z,4.25
2023-03-22T01:53:34.788Z,4.85
2023-03-22T01:58:43.347Z,4.80
2023-03-22T02:03:54.255Z,3.75
2023-03-22T02:08:59.427Z,4.65
2023-03-22T02:14:23.491Z,4.10
2023-03-22T02:20:45.268Z,4.20
2023-03-22T02:26:24.669Z,4.63
2023-03-22T02:31:53.963Z,4.40
2023-03-22T02:37:16.994Z,4.43
2023-03-22T02:42:42.094Z,4.55
2023-03-22T02:47:55.720Z,4.73
2023-03-22T02:53:06.334Z,3.72
2023-03-22T02:58:18.101Z,4.35
2023-03-22T03:03:25.871Z,4.00
2023-03-22T03:08:30.796Z,4.68
2023-03-22T03:13:38.303Z,3.25
2023-03-22T03:18:49.386Z,3.22
2023-03-22T03:23:59.377Z,3.78
2023-03-22T03:29:11.824Z,3.90
2023-03-22T03:34:21.048Z,3.30
2023-03-22T03:39:27.784Z,3.63
2023-03-22T03:44:34.257Z,3.60
2023-03-22T03:49:37.652Z,3.10
2023-03-22T03:54:43.131Z,3.92
2023-03-22T03:59:52.997Z,2.85
2023-03-22T04:05:17.560Z,4.20
2023-03-22T04:10:21.781Z,3.85
2023-03-22T04:15:26.976Z,3.60
2023-03-22T04:20:34.000Z,3.08
2023-03-22T04:25:38.040Z,3.78
2023-03-22T04:30:52.053Z,3.67
2023-03-22T04:36:17.712Z,3.67
2023-03-22T04:41:40.242Z,3.80
2023-03-22T04:46:45.781Z,3.50
2023-03-22T04:51:49.759Z,3.72
2023-03-22T04:57:06.508Z,3.85
2023-03-22T05:02:17.728Z,5.22
2023-03-22T05:07:23.704Z,3.92
2023-03-22T05:12:31.333Z,4.53
2023-03-22T05:17:42.257Z,4.15
2023-03-22T05:22:51.038Z,4.35
2023-03-22T05:28:01.725Z,5.05
2023-03-22T05:33:22.189Z,4.78
2023-03-22T05:38:29.825Z,5.13
2023-03-22T05:43:36.418Z,4.95
2023-03-22T05:48:42.584Z,5.30
2023-03-22T05:53:47.597Z,5.90
2023-03-22T05:58:55.200Z,5.57
2023-03-22T06:04:01.398Z,6.47
2023-03-22T06:09:17.395Z,5.53
2023-03-22T06:14:26.340Z,6.35
2023-03-22T06:19:44.070Z,7.45
2023-03-22T06:24:50.388Z,6.63
2023-03-22T06:30:02.301Z,6.30
2023-03-22T06:35:11.039Z,5.45
2023-03-22T06:40:15.027Z,6.40
2023-03-22T06:45:19.259Z,7.13
2023-03-22T06:50:24.632Z,6.78
2023-03-22T06:55:44.663Z,6.45
2023-03-22T07:00:54.006Z,5.90
2023-03-22T07:06:04.282Z,6.43
2023-03-22T07:11:09.760Z,6.45
2023-03-22T07:16:14.511Z,6.13
2023-03-22T07:21:27.709Z,5.82
2023-03-22T07:26:36.129Z,6.75
2023-03-22T07:31:40.633Z,5.90
2023-03-22T07:36:49.431Z,6.15
2023-03-22T07:41:53.036Z,5.82
2023-03-22T07:46:56.907Z,5.85
2023-03-22T07:52:08.973Z,6.85
2023-03-22T07:57:12.629Z,5.45
2023-03-22T08:02:22.275Z,5.82
2023-03-22T08:07:32.011Z,5.70
2023-03-22T08:12:36.531Z,5.85
2023-03-22T08:18:00.794Z,6.57
2023-03-22T08:23:15.798Z,6.57
2023-03-22T08:28:37.706Z,6.03
2023-03-22T08:33:42.180Z,6.88
2023-03-22T08:38:47.275Z,5.53
2023-03-22T08:43:53.746Z,5.40
2023-03-22T08:49:00.402Z,5.72
2023-03-22T08:54:12.523Z,5.85
2023-03-22T08:59:34.217Z,5.47
2023-03-22T09:05:13.895Z,5.45
2023-03-22T09:10:20.961Z,5.10
2023-03-22T09:15:26.410Z,4.95
2023-03-22T09:20:46.561Z,4.07
2023-03-22T09:25:55.465Z,3.97
2023-03-22T09:31:02.568Z,3.65
2023-03-22T09:36:07.157Z,3.95
2023-03-22T09:41:17.101Z,3.75
2023-03-22T09:46:28.299Z,3.78
2023-03-22T09:51:39.743Z,4.85
2023-03-22T09:56:49.156Z,4.85
2023-03-22T10:01:57.881Z,3.92
2023-03-22T10:07:08.582Z,4.15
2023-03-22T10:12:20.926Z,3.78
2023-03-22T10:17:27.512Z,2.90
2023-03-22T10:22:34.819Z,2.90
2023-03-22T10:27:39.557Z,3.97
2023-03-22T10:32:57.162Z,3.10
2023-03-22T10:38:05.704Z,3.58
2023-03-22T10:43:21.566Z,3.50
2023-03-22T10:48:30.015Z,3.45
2023-03-22T10:53:40.027Z,3.22
2023-03-22T10:58:44.644Z,2.88
2023-03-22T11:03:51.973Z,3.60
2023-03-22T11:08:58.797Z,2.90
2023-03-22T11:14:08.149Z,3.22
2023-03-22T11:19:18.302Z,3.05
2023-03-22T11:24:22.774Z,2.60
2023-03-22T11:29:27.506Z,3.20
2023-03-22T11:34:32.915Z,2.03
2023-03-22T11:39:36.274Z,1.98
2023-03-22T11:44:40.968Z,1.45
2023-03-22T11:49:48.831Z,1.70
2023-03-22T11:54:54.177Z,1.20
2023-03-22T12:00:07.138Z,1.58
2023-03-22T12:05:20.094Z,1.25
2023-03-22T12:10:29.192Z,1.25
2023-03-22T12:15:38.204Z,1.90
2023-03-22T12:20:46.667Z,1.15
2023-03-22T12:25:52.819Z,1.20
2023-03-22T12:30:58.557Z,2.78
2023-03-22T12:36:05.744Z,1.40
2023-03-22T12:41:13.226Z,1.42
2023-03-22T12:46:20.938Z,1.40
2023-03-22T12:51:24.300Z,1.00
2023-03-22T12:56:31.882Z,1.10
2023-03-22T13:01:41.032Z,1.40
2023-03-22T13:06:57.560Z,1.00
2023-03-22T13:12:30.152Z,1.98
2023-03-22T13:17:47.251Z,1.00
2023-03-22T13:23:13.074Z,1.10
2023-03-22T13:28:27.312Z,1.33
2023-03-22T13:33:34.710Z,1.35
2023-03-22T13:38:42.646Z,1.17
2023-03-22T13:43:50.230Z,1.13
2023-03-22T13:49:13.838Z,0.90
2023-03-22T13:54:24.629Z,1.23
2023-03-22T13:59:33.757Z,1.50
2023-03-22T14:04:44.245Z,1.50
2023-03-22T14:09:51.809Z,2.08
2023-03-22T14:14:59.093Z,1.60
2023-03-22T14:20:08.360Z,1.40
